createdAt,value
2019-02-23T00:02:24.679Z,-2.70
2019-02-23T00:04:53.242Z,-2.80
2019-02-23T00:07:21.830Z,-2.90
2019-02-23T00:09:50.403Z,-3.10
2019-02-23T00:12:18.987Z,-3.10
2019-02-23T00:14:47.595Z,-3.00
2019-02-23T00:17:16.183Z,-3.00
2019-02-23T00:19:44.759Z,-2.90
2019-02-23T00:22:13.354Z,-2.90
2019-02-23T00:24:41.927Z,-2.80
2019-02-23T00:27:10.520Z,-2.80
2019-02-23T00:29:39.102Z,-2.90
2019-02-23T00:32:07.694Z,-3.00
2019-02-23T00:34:36.258Z,-3.00
2019-02-23T00:37:04.850Z,-3.10
2019-02-23T00:39:33.425Z,-3.10
2019-02-23T00:42:02.014Z,-3.10
2019-02-23T00:44:30.589Z,-3.10
2019-02-23T00:46:59.179Z,-3.10
2019-02-23T00:49:35.786Z,-3.10
2019-02-23T00:51:57.987Z,-3.10
2019-02-23T00:54:26.555Z,-3.10
2019-02-23T00:56:55.126Z,-3.10
2019-02-23T00:59:23.719Z,-3.20
2019-02-23T01:01:52.286Z,-3.20
2019-02-23T01:04:20.879Z,-3.20
2019-02-23T01:06:49.447Z,-3.20
2019-02-23T01:09:18.173Z,-3.20
2019-02-23T01:11:46.751Z,-3.20
2019-02-23T01:14:15.344Z,-3.10
2019-02-23T01:16:43.916Z,-3.00
2019-02-23T01:19:12.530Z,-3.10
2019-02-23T01:21:41.073Z,-3.20
2019-02-23T01:24:09.666Z,-3.20
2019-02-23T01:26:38.500Z,-3.20
2019-02-23T01:29:07.095Z,-3.10
2019-02-23T01:31:35.660Z,-3.30
2019-02-23T01:34:04.256Z,-3.30
2019-02-23T01:36:32.822Z,-3.30
2019-02-23T01:39:01.417Z,-3.30
2019-02-23T01:41:29.983Z,-3.20
2019-02-23T01:44:00.488Z,-3.10
2019-02-23T01:46:28.792Z,-2.90
2019-02-23T01:48:57.388Z,-2.80
2019-02-23T01:51:25.950Z,-2.80
2019-02-23T01:53:54.616Z,-2.70
2019-02-23T01:56:23.179Z,-2.70
2019-02-23T01:58:51.774Z,-2.70
2019-02-23T02:01:20.339Z,-2.80
2019-02-23T02:03:48.934Z,-2.80
2019-02-23T02:06:17.507Z,-2.90
2019-02-23T02:08:46.366Z,-3.00
2019-02-23T02:11:15.699Z,-3.00
2019-02-23T02:13:44.290Z,-3.00
2019-02-23T02:16:12.866Z,-2.90
2019-02-23T02:18:41.450Z,-2.90
2019-02-23T02:21:10.024Z,-3.10
2019-02-23T02:23:38.615Z,-3.10
2019-02-23T02:26:07.190Z,-3.00
2019-02-23T02:28:35.779Z,-2.90
2019-02-23T02:31:04.357Z,-2.90
2019-02-23T02:33:32.952Z,-3.00
2019-02-23T02:36:01.525Z,-2.80
2019-02-23T02:38:30.110Z,-2.70
2019-02-23T02:40:58.693Z,-2.60
2019-02-23T02:43:27.284Z,-2.60
2019-02-23T02:45:55.851Z,-2.60
2019-02-23T02:48:24.449Z,-2.60
2019-02-23T02:50:53.012Z,-2.90
2019-02-23T02:53:21.598Z,-2.90
2019-02-23T02:55:50.165Z,-2.90
2019-02-23T02:58:18.763Z,-2.80
2019-02-23T03:00:47.335Z,-2.80
2019-02-23T03:03:15.926Z,-2.80
2019-02-23T03:05:44.497Z,-2.70
2019-02-23T03:08:13.091Z,-2.70
2019-02-23T03:10:41.657Z,-2.70
2019-02-23T03:13:10.251Z,-2.60
2019-02-23T03:15:38.828Z,-2.50
2019-02-23T03:18:07.406Z,-2.50
2019-02-23T03:20:36.960Z,-2.50
2019-02-23T03:23:05.643Z,-2.40
2019-02-23T03:25:34.247Z,-2.60
2019-02-23T03:28:02.803Z,-2.60
2019-02-23T03:30:31.403Z,-2.60
2019-02-23T03:32:59.966Z,-2.50
2019-02-23T03:35:28.559Z,-2.50
2019-02-23T03:37:57.139Z,-2.50
2019-02-23T03:40:25.734Z,-2.50
2019-02-23T03:42:54.299Z,-2.70
2019-02-23T03:45:22.901Z,-2.80
2019-02-23T03:47:51.462Z,-2.90
2019-02-23T03:50:20.227Z,-3.00
2019-02-23T03:52:48.817Z,-3.00
2019-02-23T03:55:17.383Z,-3.00
2019-02-23T03:57:45.960Z,-3.00
2019-02-23T04:00:14.720Z,-2.80
2019-02-23T04:02:43.287Z,-2.80
2019-02-23T04:05:11.883Z,-2.70
2019-02-23T04:07:40.452Z,-2.70
2019-02-23T04:10:09.211Z,-2.70
2019-02-23T04:12:37.831Z,-2.60
2019-02-23T04:15:07.327Z,-2.70
2019-02-23T04:17:35.883Z,-2.70
2019-02-23T04:20:06.311Z,-2.80
2019-02-23T04:22:34.904Z,-2.90
2019-02-23T04:25:03.639Z,-3.30
2019-02-23T04:27:32.212Z,-3.40
2019-02-23T04:30:00.806Z,-3.40
2019-02-23T04:32:29.378Z,-3.30
2019-02-23T04:34:57.971Z,-3.40
2019-02-23T04:37:26.538Z,-3.40
2019-02-23T04:39:55.130Z,-3.30
2019-02-23T04:42:23.702Z,-3.20
2019-02-23T04:44:52.295Z,-3.40
2019-02-23T04:47:20.866Z,-3.40
2019-02-23T04:49:54.427Z,-3.50
2019-02-23T04:52:22.999Z,-3.60
2019-02-23T04:54:51.593Z,-3.70
2019-02-23T04:57:20.166Z,-3.80
2019-02-23T04:59:48.760Z,-4.00
2019-02-23T05:02:17.339Z,-4.00
2019-02-23T05:04:45.939Z,-4.00
2019-02-23T05:07:14.503Z,-3.80
2019-02-23T05:09:43.088Z,-4.10
2019-02-23T05:12:11.663Z,-4.20
2019-02-23T05:14:40.261Z,-4.00
2019-02-23T05:17:08.822Z,-4.00
2019-02-23T05:19:37.416Z,-3.90
2019-02-23T05:22:05.991Z,-3.90
2019-02-23T05:24:34.587Z,-3.80
2019-02-23T05:27:03.151Z,-3.70
2019-02-23T05:29:31.744Z,-3.70
2019-02-23T05:32:00.315Z,-3.80
2019-02-23T05:34:28.912Z,-4.00
2019-02-23T05:36:57.483Z,-4.10
2019-02-23T05:39:26.076Z,-4.30
2019-02-23T05:41:54.653Z,-4.20
2019-02-23T05:44:23.247Z,-4.30
2019-02-23T05:46:51.819Z,-4.20
2019-02-23T05:49:20.407Z,-4.10
2019-02-23T05:51:48.983Z,-4.00
2019-02-23T05:54:17.552Z,-4.10
2019-02-23T05:56:46.215Z,-4.10
2019-02-23T05:59:14.783Z,-4.10
2019-02-23T06:01:43.366Z,-4.00
2019-02-23T06:04:11.939Z,-4.00
2019-02-23T06:06:40.530Z,-3.90
2019-02-23T06:09:09.098Z,-3.90
2019-02-23T06:11:37.700Z,-4.00
2019-02-23T06:14:06.259Z,-4.10
2019-02-23T06:16:34.855Z,-4.00
2019-02-23T06:19:03.420Z,-3.90
2019-02-23T06:21:32.015Z,-3.90
2019-02-23T06:24:00.592Z,-3.90
2019-02-23T06:26:29.187Z,-3.90
2019-02-23T06:28:57.754Z,-4.40
2019-02-23T06:31:26.363Z,-4.40
2019-02-23T06:33:54.945Z,-4.30
2019-02-23T06:36:23.526Z,-4.10
2019-02-23T06:38:52.094Z,-4.00
2019-02-23T06:41:20.688Z,-3.90
2019-02-23T06:43:49.259Z,-3.80
2019-02-23T06:46:17.920Z,-3.80
2019-02-23T06:48:46.430Z,-3.70
2019-02-23T06:51:15.018Z,-3.70
2019-02-23T06:53:43.591Z,-3.60
2019-02-23T06:56:12.184Z,-3.60
2019-02-23T06:58:40.756Z,-3.60
2019-02-23T07:01:09.346Z,-3.50
2019-02-23T07:03:37.923Z,-3.50
2019-02-23T07:06:06.517Z,-3.30
2019-02-23T07:08:35.091Z,-3.20
2019-02-23T07:11:03.674Z,-3.10
2019-02-23T07:13:32.246Z,-2.90
2019-02-23T07:16:00.852Z,-2.80
2019-02-23T07:18:29.423Z,-2.80
2019-02-23T07:20:58.086Z,-2.80
2019-02-23T07:23:26.660Z,-2.60
2019-02-23T07:25:55.264Z,-2.60
2019-02-23T07:28:23.836Z,-2.50
2019-02-23T07:30:52.432Z,-2.30
2019-02-23T07:33:32.353Z,-2.30
2019-02-23T07:35:51.248Z,-2.20
2019-02-23T07:38:19.828Z,-2.10
2019-02-23T07:40:48.419Z,-1.90
2019-02-23T07:43:17.038Z,-1.70
2019-02-23T07:45:45.667Z,-1.70
2019-02-23T07:48:14.227Z,-1.40
2019-02-23T07:50:42.823Z,-1.30
2019-02-23T07:53:11.403Z,-1.10
2019-02-23T07:55:39.995Z,-1.10
2019-02-23T07:58:08.566Z,-1.10
2019-02-23T08:00:37.159Z,-1.00
2019-02-23T08:03:05.723Z,-0.80
2019-02-23T08:05:34.315Z,-0.30
2019-02-23T08:08:02.883Z,-0.40
2019-02-23T08:10:31.480Z,-0.30
2019-02-23T08:13:00.051Z,-0.40
2019-02-23T08:15:28.648Z,-0.50
2019-02-23T08:17:57.219Z,-0.40
2019-02-23T08:20:25.815Z,-0.50
2019-02-23T08:22:54.383Z,-0.40
2019-02-23T08:25:22.948Z,-0.40
2019-02-23T08:27:51.544Z,-0.30
2019-02-23T08:30:20.108Z,0.10
2019-02-23T08:32:48.703Z,0.00
2019-02-23T08:35:17.259Z,0.30
2019-02-23T08:37:45.847Z,0.30
2019-02-23T08:40:17.899Z,0.20
2019-02-23T08:42:46.493Z,0.20
2019-02-23T08:45:15.042Z,0.20
2019-02-23T08:47:43.627Z,0.20
2019-02-23T08:50:14.408Z,0.20
2019-02-23T08:52:49.262Z,0.10
2019-02-23T08:55:13.290Z,0.10
2019-02-23T08:57:41.878Z,0.10
2019-02-23T09:00:13.252Z,0.10
2019-02-23T09:02:41.827Z,0.20
2019-02-23T09:05:11.428Z,0.20
2019-02-23T09:07:40.020Z,0.20
2019-02-23T09:10:13.339Z,0.30
2019-02-23T09:12:41.915Z,0.30
2019-02-23T09:15:11.210Z,0.30
2019-02-23T09:17:39.795Z,0.50
2019-02-23T09:20:10.295Z,0.60
2019-02-23T09:22:39.156Z,0.70
2019-02-23T09:25:10.652Z,0.80
2019-02-23T09:27:39.271Z,0.90
2019-02-23T09:30:12.541Z,1.00
2019-02-23T09:32:41.191Z,1.00
2019-02-23T09:35:10.179Z,1.10
2019-02-23T09:37:38.732Z,1.10
2019-02-23T09:40:10.702Z,1.10
2019-02-23T09:42:39.704Z,1.40
2019-02-23T09:45:10.980Z,1.30
2019-02-23T09:47:39.566Z,1.40
2019-02-23T09:50:08.635Z,1.80
2019-02-23T09:52:37.222Z,1.80
2019-02-23T09:55:07.319Z,2.10
2019-02-23T09:57:35.903Z,2.10
2019-02-23T10:00:09.189Z,2.30
2019-02-23T10:02:37.796Z,2.40
2019-02-23T10:05:07.403Z,2.40
2019-02-23T10:07:36.302Z,2.20
2019-02-23T10:10:07.086Z,2.10
2019-02-23T10:12:35.674Z,2.50
2019-02-23T10:15:06.284Z,2.70
2019-02-23T10:17:34.861Z,2.90
2019-02-23T10:20:03.496Z,2.80
2019-02-23T10:22:32.092Z,2.70
2019-02-23T10:25:00.700Z,2.70
2019-02-23T10:27:29.262Z,2.50
2019-02-23T10:29:57.826Z,2.40
2019-02-23T10:32:26.415Z,2.50
2019-02-23T10:34:54.975Z,2.40
2019-02-23T10:37:23.559Z,2.60
2019-02-23T10:39:52.393Z,2.60
2019-02-23T10:42:20.970Z,2.50
2019-02-23T10:44:49.542Z,2.60
2019-02-23T10:47:18.128Z,2.60
2019-02-23T10:49:46.690Z,2.70
2019-02-23T10:52:15.279Z,2.90
2019-02-23T10:54:43.851Z,2.80
2019-02-23T10:57:12.511Z,2.40
2019-02-23T10:59:41.083Z,2.50
2019-02-23T11:02:09.739Z,2.70
2019-02-23T11:04:38.311Z,2.60
2019-02-23T11:07:06.907Z,2.10
2019-02-23T11:09:37.037Z,1.90
2019-02-23T11:12:05.835Z,1.90
2019-02-23T11:14:34.398Z,2.00
2019-02-23T11:17:03.062Z,2.20
2019-02-23T11:19:31.624Z,2.30
2019-02-23T11:22:00.206Z,2.40
2019-02-23T11:24:28.776Z,2.60
2019-02-23T11:26:57.359Z,2.70
2019-02-23T11:29:25.920Z,2.80
2019-02-23T11:31:54.557Z,2.90
2019-02-23T11:34:23.188Z,2.80
2019-02-23T11:36:51.990Z,2.90
2019-02-23T11:39:20.586Z,2.90
2019-02-23T11:41:49.149Z,2.90
2019-02-23T11:44:17.727Z,3.10
2019-02-23T11:47:00.009Z,3.30
2019-02-23T11:49:16.524Z,3.40
2019-02-23T11:51:45.082Z,3.20
2019-02-23T11:54:13.675Z,2.90
2019-02-23T11:56:42.239Z,3.10
2019-02-23T11:59:10.822Z,3.30
2019-02-23T12:01:39.387Z,3.50
2019-02-23T12:04:07.983Z,3.70
2019-02-23T12:06:36.546Z,3.70
2019-02-23T12:09:05.504Z,3.60
2019-02-23T12:11:34.062Z,3.40
2019-02-23T12:14:02.647Z,3.20
2019-02-23T12:16:31.215Z,3.10
2019-02-23T12:18:59.795Z,3.20
2019-02-23T12:21:28.356Z,3.40
2019-02-23T12:24:05.684Z,3.90
2019-02-23T12:26:27.143Z,4.10
2019-02-23T12:28:55.730Z,4.20
2019-02-23T12:31:24.297Z,4.30
2019-02-23T12:33:52.887Z,4.40
2019-02-23T12:36:21.537Z,4.40
2019-02-23T12:38:50.150Z,4.50
2019-02-23T12:41:18.715Z,4.60
2019-02-23T12:43:47.295Z,4.90
2019-02-23T12:46:15.860Z,4.90
2019-02-23T12:48:44.441Z,4.80
2019-02-23T12:51:12.998Z,4.80
2019-02-23T12:53:41.592Z,4.90
2019-02-23T12:56:10.434Z,5.00
2019-02-23T12:58:39.016Z,5.10
2019-02-23T13:01:07.575Z,5.10
2019-02-23T13:03:36.159Z,5.30
2019-02-23T13:06:04.867Z,5.40
2019-02-23T13:08:52.843Z,5.40
2019-02-23T13:11:21.386Z,5.40
2019-02-23T13:13:53.053Z,5.50
2019-02-23T13:16:25.024Z,5.60
2019-02-23T13:19:05.245Z,5.60
2019-02-23T13:21:51.734Z,5.40
2019-02-23T13:24:28.486Z,4.90
2019-02-23T13:27:14.680Z,4.60
2019-02-23T13:29:58.411Z,4.50
2019-02-23T13:32:39.071Z,4.40
2019-02-23T13:35:22.951Z,4.40
2019-02-23T13:38:23.389Z,4.70
2019-02-23T13:41:21.009Z,4.90
2019-02-23T13:44:07.576Z,4.90
2019-02-23T13:46:50.994Z,4.80
2019-02-23T13:49:25.078Z,4.90
2019-02-23T13:51:59.474Z,5.00
2019-02-23T13:54:56.867Z,5.10
2019-02-23T13:57:28.515Z,5.10
2019-02-23T14:00:29.138Z,5.10
2019-02-23T14:03:03.345Z,5.00
2019-02-23T14:05:40.648Z,5.00
2019-02-23T14:08:28.774Z,5.00
2019-02-23T14:11:12.274Z,5.00
2019-02-23T14:13:55.920Z,5.10
2019-02-23T14:16:36.369Z,5.10
2019-02-23T14:19:08.026Z,5.10
2019-02-23T14:21:57.871Z,5.30
2019-02-23T14:24:35.302Z,5.30
2019-02-23T14:27:12.830Z,5.30
2019-02-23T14:30:01.127Z,5.30
2019-02-23T14:32:41.632Z,5.30
2019-02-23T14:35:31.425Z,5.30
2019-02-23T14:38:14.754Z,5.20
2019-02-23T14:40:46.414Z,5.10
2019-02-23T14:43:23.681Z,5.00
2019-02-23T14:46:03.923Z,4.90
2019-02-23T14:49:08.748Z,4.90
2019-02-23T14:52:01.495Z,4.90
2019-02-23T14:54:41.886Z,4.80
2019-02-23T14:57:22.514Z,4.70
2019-02-23T14:59:57.306Z,4.70
2019-02-23T15:02:43.894Z,4.80
2019-02-23T15:05:27.726Z,4.80
2019-02-23T15:08:14.258Z,4.70
2019-02-23T15:10:48.647Z,4.70
2019-02-23T15:13:32.190Z,4.70
2019-02-23T15:16:16.566Z,4.60
2019-02-23T15:18:48.026Z,4.40
2019-02-23T15:21:28.347Z,4.30
2019-02-23T15:24:16.547Z,4.20
2019-02-23T15:27:10.834Z,4.00
2019-02-23T15:29:42.620Z,4.00
2019-02-23T15:32:36.568Z,3.80
2019-02-23T15:35:13.895Z,3.70
2019-02-23T15:37:57.355Z,3.50
2019-02-23T15:40:34.918Z,3.40
2019-02-23T15:43:27.977Z,3.30
2019-02-23T15:46:29.990Z,3.10
2019-02-23T15:49:08.302Z,3.00
2019-02-23T15:51:36.864Z,2.90
2019-02-23T15:54:05.447Z,2.90
2019-02-23T15:56:33.967Z,2.70
2019-02-23T15:59:21.876Z,2.60
2019-02-23T16:01:50.454Z,2.50
2019-02-23T16:04:19.031Z,2.40
2019-02-23T16:06:47.592Z,2.30
2019-02-23T16:09:16.243Z,2.20
2019-02-23T16:11:45.369Z,2.10
2019-02-23T16:14:14.079Z,1.90
2019-02-23T16:16:42.645Z,1.80
2019-02-23T16:19:11.204Z,1.80
2019-02-23T16:21:39.786Z,1.70
2019-02-23T16:24:08.352Z,1.60
2019-02-23T16:26:36.938Z,1.60
2019-02-23T16:29:05.531Z,1.60
2019-02-23T16:31:34.092Z,1.50
2019-02-23T16:34:02.650Z,1.30
2019-02-23T16:36:31.230Z,1.40
2019-02-23T16:38:59.800Z,1.30
2019-02-23T16:41:28.379Z,1.10
2019-02-23T16:43:56.939Z,1.00
2019-02-23T16:46:25.533Z,0.90
2019-02-23T16:48:54.095Z,0.90
2019-02-23T16:51:22.702Z,0.70
2019-02-23T16:53:51.245Z,0.50
2019-02-23T16:56:19.828Z,0.40
2019-02-23T16:58:48.597Z,0.40
2019-02-23T17:01:17.183Z,0.30
2019-02-23T17:03:45.814Z,0.20
2019-02-23T17:06:14.344Z,0.20
2019-02-23T17:08:42.916Z,0.20
2019-02-23T17:11:11.491Z,0.20
2019-02-23T17:13:40.050Z,0.30
2019-02-23T17:16:08.647Z,0.30
2019-02-23T17:18:37.298Z,0.40
2019-02-23T17:21:05.883Z,0.40
2019-02-23T17:23:34.443Z,0.60
2019-02-23T17:26:04.966Z,0.50
2019-02-23T17:28:33.247Z,0.50
2019-02-23T17:31:01.828Z,0.30
2019-02-23T17:33:30.390Z,0.20
2019-02-23T17:35:58.972Z,0.10
2019-02-23T17:38:27.535Z,-0.10
2019-02-23T17:40:56.131Z,-0.30
2019-02-23T17:43:24.703Z,-0.30
2019-02-23T17:45:53.291Z,-0.30
2019-02-23T17:48:21.880Z,-0.30
2019-02-23T17:50:50.793Z,-0.30
2019-02-23T17:53:19.540Z,-0.40
2019-02-23T17:55:48.105Z,-0.50
2019-02-23T17:58:16.703Z,-0.80
2019-02-23T18:00:45.274Z,-1.00
2019-02-23T18:03:13.864Z,-0.90
2019-02-23T18:05:42.426Z,-0.90
2019-02-23T18:08:11.015Z,-0.90
2019-02-23T18:10:39.579Z,-0.90
2019-02-23T18:13:08.166Z,-0.90
2019-02-23T18:15:36.726Z,-1.00
2019-02-23T18:18:05.424Z,-1.00
2019-02-23T18:20:33.958Z,-1.00
2019-02-23T18:23:02.549Z,-1.00
2019-02-23T18:25:31.107Z,-1.00
2019-02-23T18:27:59.700Z,-0.90
2019-02-23T18:30:28.262Z,-0.90
2019-02-23T18:32:56.857Z,-1.00
2019-02-23T18:35:25.463Z,-1.10
2019-02-23T18:37:54.047Z,-1.10
2019-02-23T18:40:22.617Z,-1.20
2019-02-23T18:42:51.211Z,-1.20
2019-02-23T18:45:19.774Z,-1.20
2019-02-23T18:47:48.363Z,-1.20
2019-02-23T18:50:16.926Z,-1.20
2019-02-23T18:52:45.523Z,-1.30
2019-02-23T18:55:14.100Z,-1.30
2019-02-23T18:57:42.689Z,-1.20
2019-02-23T19:00:12.802Z,-1.10
2019-02-23T19:02:41.400Z,-1.10
2019-02-23T19:05:12.202Z,-1.10
2019-02-23T19:07:40.800Z,-1.10
2019-02-23T19:10:12.372Z,-1.30
2019-02-23T19:12:40.963Z,-1.50
2019-02-23T19:15:12.443Z,-1.60
2019-02-23T19:17:41.327Z,-1.60
2019-02-23T19:20:12.523Z,-1.50
2019-02-23T19:22:41.119Z,-1.50
2019-02-23T19:25:11.340Z,-1.60
2019-02-23T19:27:39.936Z,-1.60
2019-02-23T19:30:11.205Z,-1.60
2019-02-23T19:32:39.799Z,-1.70
2019-02-23T19:35:08.940Z,-1.60
2019-02-23T19:37:37.533Z,-1.60
2019-02-23T19:40:08.539Z,-1.60
2019-02-23T19:42:37.127Z,-1.50
2019-02-23T19:45:08.927Z,-1.50
2019-02-23T19:47:38.467Z,-1.50
2019-02-23T19:50:22.123Z,-1.60
2019-02-23T19:52:50.706Z,-1.60
2019-02-23T19:55:19.270Z,-1.60
2019-02-23T19:57:47.858Z,-1.70
2019-02-23T20:00:16.426Z,-1.70
2019-02-23T20:02:45.025Z,-1.70
2019-02-23T20:05:13.594Z,-1.80
2019-02-23T20:07:42.194Z,-1.70
2019-02-23T20:10:11.207Z,-1.70
2019-02-23T20:12:39.794Z,-1.80
2019-02-23T20:15:11.579Z,-1.80
2019-02-23T20:17:40.247Z,-1.80
2019-02-23T20:20:09.150Z,-1.80
2019-02-23T20:22:37.747Z,-1.90
2019-02-23T20:25:08.417Z,-1.90
2019-02-23T20:27:37.015Z,-1.90
2019-02-23T20:30:10.923Z,-1.90
2019-02-23T20:32:39.515Z,-1.90
2019-02-23T20:35:08.950Z,-1.90
2019-02-23T20:37:37.541Z,-2.00
2019-02-23T20:40:08.218Z,-2.00
2019-02-23T20:42:36.815Z,-2.00
2019-02-23T20:45:07.714Z,-1.90
2019-02-23T20:47:36.322Z,-1.80
2019-02-23T20:50:07.831Z,-1.80
2019-02-23T20:52:36.431Z,-1.80
2019-02-23T20:55:06.941Z,-1.80
2019-02-23T20:57:35.535Z,-1.80
2019-02-23T21:00:06.542Z,-1.80
2019-02-23T21:02:35.136Z,-1.90
2019-02-23T21:05:04.070Z,-1.90
2019-02-23T21:07:32.791Z,-2.00
2019-02-23T21:10:01.638Z,-2.00
2019-02-23T21:12:30.235Z,-2.20
2019-02-23T21:14:58.808Z,-2.30
2019-02-23T21:17:27.382Z,-2.30
2019-02-23T21:19:55.970Z,-2.30
2019-02-23T21:22:24.534Z,-2.30
2019-02-23T21:24:53.126Z,-2.30
2019-02-23T21:27:21.699Z,-2.30
2019-02-23T21:29:50.293Z,-2.30
2019-02-23T21:32:18.858Z,-2.40
2019-02-23T21:34:47.483Z,-2.40
2019-02-23T21:37:16.048Z,-2.30
2019-02-23T21:39:44.638Z,-2.30
2019-02-23T21:42:13.207Z,-2.30
2019-02-23T21:44:41.802Z,-2.30
2019-02-23T21:47:10.370Z,-2.40
2019-02-23T21:49:38.973Z,-2.40
2019-02-23T21:52:07.540Z,-2.40
2019-02-23T21:54:36.126Z,-2.50
2019-02-23T21:57:04.704Z,-2.50
2019-02-23T21:59:33.290Z,-2.40
2019-02-23T22:02:01.867Z,-2.40
2019-02-23T22:04:30.459Z,-2.40
2019-02-23T22:06:59.029Z,-2.30
2019-02-23T22:09:27.615Z,-2.20
2019-02-23T22:11:56.191Z,-2.10
2019-02-23T22:14:24.779Z,-2.30
2019-02-23T22:16:53.361Z,-2.40
2019-02-23T22:19:21.950Z,-2.40
2019-02-23T22:21:50.515Z,-2.50
2019-02-23T22:24:19.107Z,-2.40
2019-02-23T22:26:47.671Z,-2.40
2019-02-23T22:29:16.271Z,-2.50
2019-02-23T22:31:44.838Z,-2.50
2019-02-23T22:34:13.431Z,-2.50
2019-02-23T22:36:42.003Z,-2.50
2019-02-23T22:39:10.586Z,-2.50
2019-02-23T22:41:39.156Z,-2.50
2019-02-23T22:44:07.747Z,-2.60
2019-02-23T22:46:36.317Z,-2.60
2019-02-23T22:49:04.906Z,-2.50
2019-02-23T22:51:33.474Z,-2.50
2019-02-23T22:54:02.060Z,-2.60
2019-02-23T22:56:30.636Z,-2.70
2019-02-23T22:58:59.318Z,-2.70
2019-02-23T23:01:28.151Z,-2.70
2019-02-23T23:03:56.748Z,-2.60
2019-02-23T23:06:25.323Z,-2.60
2019-02-23T23:08:53.917Z,-2.60
2019-02-23T23:11:22.487Z,-2.60
2019-02-23T23:13:51.075Z,-2.60
2019-02-23T23:16:19.642Z,-2.60
2019-02-23T23:18:48.239Z,-2.60
2019-02-23T23:21:16.811Z,-2.60
2019-02-23T23:23:45.398Z,-2.70
2019-02-23T23:26:13.970Z,-2.70
2019-02-23T23:28:42.564Z,-2.70
2019-02-23T23:31:11.122Z,-2.70
2019-02-23T23:33:39.706Z,-2.70
2019-02-23T23:36:08.279Z,-2.60
2019-02-23T23:38:36.876Z,-2.60
2019-02-23T23:41:05.453Z,-2.60
2019-02-23T23:43:34.016Z,-2.50
2019-02-23T23:46:02.611Z,-2.40
2019-02-23T23:48:31.184Z,-2.40
2019-02-23T23:50:59.774Z,-2.50
2019-02-23T23:53:28.348Z,-2.40
2019-02-23T23:55:56.939Z,-2.40
2019-02-23T23:58:25.511Z,-2.40
